Terminal Aerodrome Forecast
Issued by NWS

Home | Current Version | Previous Version | Text Only | Print | Product List | Glossary On
Versions: 1 2 3 4 5 6 7 8 9 10 11 12 13 14 15
000
FTUS44 KMAF 040500
TAFINK
TAF
KINK 040525Z 0406/0506 14012G22KT P6SM BKN120
     FM040800 14010KT P6SM BKN120
     FM041600 14018G25KT P6SM BKN040=

USA.gov is the U.S. government's official web portal to all federal, state and local government web resources and services.